createdAt,value
2023-03-19T00:00:53.830Z,15.80
2023-03-19T00:03:58.055Z,18.07
2023-03-19T00:07:02.377Z,18.53
2023-03-19T00:10:07.012Z,15.43
2023-03-19T00:13:12.870Z,14.80
2023-03-19T00:16:16.999Z,16.23
2023-03-19T00:19:21.082Z,19.43
2023-03-19T00:22:25.015Z,15.33
2023-03-19T00:25:29.211Z,15.50
2023-03-19T00:28:35.732Z,14.83
2023-03-19T00:31:40.259Z,14.30
2023-03-19T00:34:44.859Z,14.33
2023-03-19T00:37:48.851Z,21.00
2023-03-19T00:40:52.899Z,16.63
2023-03-19T00:43:59.686Z,15.83
2023-03-19T00:47:07.664Z,15.73
2023-03-19T00:50:12.728Z,14.80
2023-03-19T00:53:16.772Z,14.17
2023-03-19T00:56:21.624Z,14.47
2023-03-19T00:59:27.428Z,10.73
2023-03-19T01:02:32.516Z,14.37
2023-03-19T01:08:40.962Z,11.57
2023-03-19T01:11:45.065Z,9.40
2023-03-19T01:14:50.456Z,10.53
2023-03-19T01:17:54.340Z,10.90
2023-03-19T01:20:58.510Z,11.17
2023-03-19T01:24:03.709Z,9.27
2023-03-19T01:27:07.803Z,12.43
2023-03-19T01:30:15.727Z,13.23
2023-03-19T01:33:55.056Z,11.87
2023-03-19T01:37:17.470Z,8.30
2023-03-19T01:40:22.156Z,10.17
2023-03-19T01:43:27.402Z,11.50
2023-03-19T01:46:53.132Z,14.03
2023-03-19T01:50:25.544Z,12.40
2023-03-19T01:53:46.866Z,12.33
2023-03-19T01:56:59.968Z,12.50
2023-03-19T02:00:27.980Z,15.20
2023-03-19T02:03:34.960Z,13.90
2023-03-19T02:06:55.370Z,16.13
2023-03-19T02:10:01.485Z,17.93
2023-03-19T02:13:06.950Z,12.70
2023-03-19T02:16:11.326Z,17.83
2023-03-19T02:19:24.188Z,18.87
2023-03-19T02:22:31.269Z,17.23
2023-03-19T02:25:44.996Z,21.93
2023-03-19T02:28:54.250Z,21.80
2023-03-19T02:32:05.189Z,15.93
2023-03-19T02:35:11.188Z,14.33
2023-03-19T02:38:16.671Z,12.60
2023-03-19T02:41:21.749Z,15.37
2023-03-19T02:44:27.415Z,12.63
2023-03-19T02:47:31.442Z,11.50
2023-03-19T02:50:35.777Z,10.10
2023-03-19T02:53:39.786Z,11.50
2023-03-19T02:56:43.812Z,8.30
2023-03-19T02:59:49.257Z,8.67
2023-03-19T03:02:53.321Z,9.87
2023-03-19T03:05:57.265Z,9.93
2023-03-19T03:09:01.403Z,12.43
2023-03-19T03:12:06.449Z,10.47
2023-03-19T03:15:12.219Z,11.43
2023-03-19T03:18:16.146Z,12.27
2023-03-19T03:21:21.756Z,16.63
2023-03-19T03:24:25.778Z,14.70
2023-03-19T03:27:29.912Z,14.53
2023-03-19T03:30:35.692Z,15.50
2023-03-19T03:33:39.783Z,13.87
2023-03-19T03:36:43.742Z,13.30
2023-03-19T03:39:48.648Z,13.33
2023-03-19T03:42:52.531Z,12.87
2023-03-19T03:45:58.689Z,14.57
2023-03-19T03:49:02.942Z,16.43
2023-03-19T03:52:08.821Z,13.80
2023-03-19T03:55:12.962Z,22.53
2023-03-19T03:58:17.171Z,14.87
2023-03-19T04:01:22.952Z,15.63
2023-03-19T04:04:31.745Z,11.57
2023-03-19T04:07:36.208Z,12.13
2023-03-19T04:10:42.620Z,13.67
2023-03-19T04:13:47.230Z,13.63
2023-03-19T04:16:52.869Z,15.33
2023-03-19T04:19:56.861Z,13.03
2023-03-19T04:23:00.788Z,13.63
2023-03-19T04:26:07.342Z,13.90
2023-03-19T04:29:12.065Z,14.67
2023-03-19T04:32:17.538Z,12.10
2023-03-19T04:35:21.908Z,15.00
2023-03-19T04:38:28.021Z,10.93
2023-03-19T04:41:32.234Z,9.13
2023-03-19T04:44:55.757Z,12.73
2023-03-19T04:48:02.100Z,10.87
2023-03-19T04:51:09.580Z,16.30
2023-03-19T04:54:15.125Z,11.57
2023-03-19T04:57:20.438Z,11.07
2023-03-19T05:00:28.520Z,12.60
2023-03-19T05:03:34.123Z,12.30
2023-03-19T05:06:38.533Z,14.00
2023-03-19T05:09:44.138Z,10.67
2023-03-19T05:12:48.412Z,13.63
2023-03-19T05:15:55.715Z,12.87
2023-03-19T05:19:01.755Z,9.70
2023-03-19T05:22:07.012Z,11.73
2023-03-19T05:25:11.829Z,9.10
2023-03-19T05:28:17.607Z,14.40
2023-03-19T05:31:22.136Z,11.90
2023-03-19T05:34:31.276Z,13.73
2023-03-19T05:37:35.529Z,14.03
2023-03-19T05:40:42.238Z,13.47
2023-03-19T05:43:58.945Z,13.20
2023-03-19T05:47:25.985Z,15.50
2023-03-19T05:50:34.740Z,14.53
2023-03-19T05:53:48.882Z,12.90
2023-03-19T05:57:11.070Z,12.27
2023-03-19T06:00:22.507Z,11.67
2023-03-19T06:03:27.495Z,9.50
2023-03-19T06:06:35.120Z,13.87
2023-03-19T06:09:39.478Z,14.00
2023-03-19T06:12:43.721Z,12.57
2023-03-19T06:16:10.376Z,14.23
2023-03-19T06:19:18.079Z,9.70
2023-03-19T06:22:23.725Z,13.83
2023-03-19T06:25:27.875Z,10.40
2023-03-19T06:28:32.040Z,9.27
2023-03-19T06:31:36.338Z,10.33
2023-03-19T06:34:48.396Z,11.40
2023-03-19T06:37:54.225Z,9.03
2023-03-19T06:40:58.320Z,7.63
2023-03-19T06:44:02.652Z,11.23
2023-03-19T06:47:07.466Z,7.23
2023-03-19T06:50:13.821Z,9.20
2023-03-19T06:53:19.502Z,8.30
2023-03-19T06:56:23.602Z,7.57
2023-03-19T06:59:27.934Z,8.83
2023-03-19T07:02:32.092Z,7.27
2023-03-19T07:05:36.316Z,9.43
2023-03-19T07:08:46.585Z,7.87
2023-03-19T07:11:50.730Z,9.60
2023-03-19T07:14:54.830Z,12.33
2023-03-19T07:17:58.976Z,7.33
2023-03-19T07:21:03.091Z,9.60
2023-03-19T07:24:09.031Z,9.03
2023-03-19T07:27:13.382Z,9.33
2023-03-19T07:30:17.860Z,8.23
2023-03-19T07:33:22.348Z,10.00
2023-03-19T07:36:26.621Z,8.03
2023-03-19T07:39:32.418Z,8.83
2023-03-19T07:42:36.931Z,8.00
2023-03-19T07:45:41.440Z,7.67
2023-03-19T07:48:45.456Z,7.47
2023-03-19T07:51:49.577Z,6.77
2023-03-19T07:54:55.272Z,9.43
2023-03-19T07:57:59.464Z,7.43
2023-03-19T08:01:03.796Z,7.87
2023-03-19T08:04:08.504Z,6.23
2023-03-19T08:07:13.223Z,6.07
2023-03-19T08:10:19.019Z,6.13
2023-03-19T08:13:23.113Z,6.87
2023-03-19T08:16:27.641Z,7.63
2023-03-19T08:19:32.261Z,7.70
2023-03-19T08:22:37.496Z,8.63
2023-03-19T08:25:43.630Z,5.53
2023-03-19T08:28:47.728Z,4.80
2023-03-19T08:31:51.812Z,5.43
2023-03-19T08:34:56.131Z,5.03
2023-03-19T08:38:00.265Z,5.90
2023-03-19T08:41:06.643Z,5.63
2023-03-19T08:44:10.752Z,4.63
2023-03-19T08:47:15.023Z,5.40
2023-03-19T08:50:20.332Z,5.87
2023-03-19T08:53:25.153Z,12.53
2023-03-19T08:56:30.626Z,5.50
2023-03-19T08:59:34.756Z,6.37
2023-03-19T09:02:39.113Z,7.83
2023-03-19T09:05:43.236Z,7.23
2023-03-19T09:08:47.347Z,5.17
2023-03-19T09:11:53.042Z,7.57
2023-03-19T09:14:57.137Z,4.80
2023-03-19T09:18:01.434Z,4.87
2023-03-19T09:21:06.393Z,5.53
2023-03-19T09:24:10.963Z,5.93
2023-03-19T09:27:16.406Z,5.37
2023-03-19T09:30:20.661Z,5.57
2023-03-19T09:33:24.830Z,4.63
2023-03-19T09:36:29.131Z,4.03
2023-03-19T09:39:33.767Z,3.57
2023-03-19T09:42:57.705Z,3.60
2023-03-19T09:46:05.861Z,4.30
2023-03-19T09:49:22.333Z,4.73
2023-03-19T09:52:43.358Z,5.30
2023-03-19T09:55:51.883Z,6.10
2023-03-19T09:58:57.465Z,5.37
2023-03-19T10:02:26.456Z,4.00
2023-03-19T10:05:43.979Z,5.07
2023-03-19T10:09:00.000Z,4.57
2023-03-19T10:12:19.467Z,4.93
2023-03-19T10:15:30.091Z,5.77
2023-03-19T10:18:39.618Z,2.57
2023-03-19T10:21:48.868Z,2.90
2023-03-19T10:24:55.972Z,5.17
2023-03-19T10:28:03.600Z,5.97
2023-03-19T10:31:26.373Z,5.30
2023-03-19T10:34:35.920Z,6.10
2023-03-19T10:37:40.352Z,4.97
2023-03-19T10:40:50.947Z,3.33
2023-03-19T10:43:59.669Z,4.37
2023-03-19T10:47:14.231Z,3.27
2023-03-19T10:50:20.740Z,6.10
2023-03-19T10:53:34.568Z,3.97
2023-03-19T10:56:47.191Z,3.90
2023-03-19T10:59:51.321Z,5.50
2023-03-19T11:02:59.526Z,2.93
2023-03-19T11:06:09.329Z,4.13
2023-03-19T11:09:24.949Z,4.03
2023-03-19T11:12:35.508Z,3.07
2023-03-19T11:15:40.667Z,3.53
2023-03-19T11:18:50.326Z,5.47
2023-03-19T11:22:04.435Z,4.27
2023-03-19T11:25:19.308Z,5.00
2023-03-19T11:28:26.958Z,6.17
2023-03-19T11:31:39.224Z,4.57
2023-03-19T11:34:52.631Z,4.83
2023-03-19T11:38:01.068Z,4.67
2023-03-19T11:41:14.806Z,3.97
2023-03-19T11:44:24.794Z,3.27
2023-03-19T11:47:38.083Z,5.77
2023-03-19T11:50:51.643Z,4.00
2023-03-19T11:54:06.630Z,4.03
2023-03-19T11:57:14.360Z,4.03
2023-03-19T12:00:30.050Z,4.47
2023-03-19T12:03:59.374Z,5.80
2023-03-19T12:07:16.028Z,3.70
2023-03-19T12:10:43.945Z,6.50
2023-03-19T12:14:03.191Z,3.20
2023-03-19T12:17:24.950Z,4.77
2023-03-19T12:20:46.873Z,6.53
2023-03-19T12:24:05.802Z,6.97
2023-03-19T12:27:23.807Z,4.87
2023-03-19T12:30:36.014Z,5.50
2023-03-19T12:33:48.237Z,4.83
2023-03-19T12:36:59.278Z,3.43
2023-03-19T12:40:24.270Z,5.70
2023-03-19T12:43:33.989Z,4.97
2023-03-19T12:46:43.748Z,3.53
2023-03-19T12:49:53.736Z,4.20
2023-03-19T12:53:02.245Z,5.33
2023-03-19T12:56:14.924Z,3.47
2023-03-19T12:59:34.608Z,3.70
2023-03-19T13:02:44.505Z,2.90
2023-03-19T13:05:54.904Z,9.40
2023-03-19T13:09:06.674Z,4.17
2023-03-19T13:12:19.194Z,5.40
2023-03-19T13:15:30.778Z,4.60
2023-03-19T13:18:42.769Z,7.47
2023-03-19T13:21:50.734Z,5.17
2023-03-19T13:24:57.134Z,2.20
2023-03-19T13:28:02.736Z,4.07
2023-03-19T13:31:09.321Z,2.20
2023-03-19T13:34:23.251Z,3.27
2023-03-19T13:37:28.394Z,2.47
2023-03-19T13:40:44.573Z,4.37
2023-03-19T13:43:56.980Z,2.30
2023-03-19T13:47:03.841Z,4.47
2023-03-19T13:50:28.711Z,3.00
2023-03-19T13:53:39.898Z,3.10
2023-03-19T13:57:08.901Z,3.80
2023-03-19T14:00:45.853Z,4.70
2023-03-19T14:03:58.806Z,5.87
2023-03-19T14:07:14.479Z,4.60
2023-03-19T14:10:25.675Z,7.80
2023-03-19T14:13:34.957Z,6.33
2023-03-19T14:16:44.012Z,4.87
2023-03-19T14:19:51.560Z,4.07
2023-03-19T14:23:04.936Z,4.90
2023-03-19T14:26:14.809Z,6.27
2023-03-19T14:29:20.167Z,5.07
2023-03-19T14:32:36.068Z,3.53
2023-03-19T14:35:47.376Z,3.37
2023-03-19T14:38:54.734Z,4.30
2023-03-19T14:42:07.552Z,4.40
2023-03-19T14:45:41.130Z,7.07
2023-03-19T14:49:11.770Z,3.87
2023-03-19T14:52:22.367Z,6.13
2023-03-19T14:55:36.110Z,4.30
2023-03-19T14:58:50.282Z,3.87
2023-03-19T15:01:55.577Z,4.57
2023-03-19T15:05:01.306Z,3.70
2023-03-19T15:08:13.490Z,4.23
2023-03-19T15:11:55.278Z,6.37
2023-03-19T15:15:21.647Z,4.37
2023-03-19T15:18:27.910Z,3.67
2023-03-19T15:21:32.541Z,3.90
2023-03-19T15:24:38.221Z,3.00
2023-03-19T15:27:43.137Z,8.30
2023-03-19T15:31:03.579Z,4.70
2023-03-19T15:34:23.841Z,3.00
2023-03-19T15:37:32.409Z,4.50
2023-03-19T15:40:39.835Z,3.80
2023-03-19T15:43:45.050Z,3.90
2023-03-19T15:46:50.742Z,5.07
2023-03-19T15:49:59.384Z,6.53
2023-03-19T15:53:09.142Z,8.17
2023-03-19T15:56:17.217Z,6.23
2023-03-19T15:59:24.894Z,7.00
2023-03-19T16:02:32.089Z,7.17
2023-03-19T16:05:36.874Z,6.20
2023-03-19T16:08:49.252Z,5.13
2023-03-19T16:11:56.212Z,7.10
2023-03-19T16:15:00.428Z,7.73
2023-03-19T16:18:26.927Z,7.80
2023-03-19T16:21:36.688Z,5.17
2023-03-19T16:24:43.292Z,5.43
2023-03-19T16:27:49.597Z,6.80
2023-03-19T16:30:53.875Z,6.17
2023-03-19T16:33:58.380Z,6.93
2023-03-19T16:37:03.660Z,5.17
2023-03-19T16:40:47.477Z,7.03
2023-03-19T16:43:55.164Z,5.43
2023-03-19T16:46:59.219Z,8.30
2023-03-19T16:50:03.416Z,12.03
2023-03-19T16:53:16.145Z,11.43
2023-03-19T16:56:20.995Z,10.87
2023-03-19T16:59:31.388Z,8.07
2023-03-19T17:02:35.550Z,28.43
2023-03-19T17:05:39.605Z,9.30
2023-03-19T17:08:44.484Z,10.03
2023-03-19T17:11:48.716Z,14.27
2023-03-19T17:14:54.504Z,11.67
2023-03-19T17:17:59.263Z,11.83
2023-03-19T17:21:07.603Z,14.17
2023-03-19T17:24:24.933Z,14.67
2023-03-19T17:27:29.352Z,17.40
2023-03-19T17:30:35.476Z,11.97
2023-03-19T17:33:39.883Z,12.03
2023-03-19T17:36:53.548Z,16.43
2023-03-19T17:39:57.694Z,11.37
2023-03-19T17:43:01.987Z,11.43
2023-03-19T17:46:07.955Z,14.00
2023-03-19T17:49:20.664Z,14.97
2023-03-19T17:52:24.954Z,15.13
2023-03-19T17:55:30.907Z,10.93
2023-03-19T17:58:35.633Z,14.37
2023-03-19T18:01:43.336Z,13.53
2023-03-19T18:04:47.495Z,13.30
2023-03-19T18:07:54.891Z,14.47
2023-03-19T18:10:59.270Z,13.70
2023-03-19T18:14:03.347Z,17.00
2023-03-19T18:17:09.678Z,18.23
2023-03-19T18:20:16.012Z,30.37
2023-03-19T18:23:20.504Z,30.77
2023-03-19T18:26:24.859Z,30.27
2023-03-19T18:29:28.930Z,28.93
2023-03-19T18:32:34.914Z,31.03
2023-03-19T18:35:41.882Z,22.30
2023-03-19T18:38:46.130Z,17.93
2023-03-19T18:41:50.297Z,20.70
2023-03-19T18:44:54.403Z,18.23
2023-03-19T18:48:00.771Z,21.83
2023-03-19T18:51:05.362Z,14.63
2023-03-19T18:54:11.579Z,23.57
2023-03-19T18:57:16.351Z,27.63
2023-03-19T19:00:22.841Z,18.37
2023-03-19T19:03:29.910Z,21.53
2023-03-19T19:06:46.906Z,16.90
2023-03-19T19:09:52.119Z,20.33
2023-03-19T19:12:57.227Z,20.67
2023-03-19T19:16:01.999Z,22.03
2023-03-19T19:19:16.788Z,20.17
2023-03-19T19:22:21.525Z,20.23
2023-03-19T19:25:27.553Z,27.13
2023-03-19T19:28:34.242Z,22.20
2023-03-19T19:31:38.501Z,21.60
2023-03-19T19:34:44.173Z,17.57
2023-03-19T19:37:48.284Z,16.60
2023-03-19T19:40:55.441Z,17.03
2023-03-19T19:44:03.487Z,13.17
2023-03-19T19:47:15.437Z,22.77
2023-03-19T19:50:22.518Z,14.43
2023-03-19T19:53:29.122Z,15.27
2023-03-19T19:56:33.278Z,14.90
2023-03-19T19:59:39.575Z,15.10
2023-03-19T20:02:43.670Z,14.73
2023-03-19T20:05:49.573Z,16.10
2023-03-19T20:08:53.602Z,15.73
2023-03-19T20:11:57.822Z,14.77
2023-03-19T20:15:02.074Z,13.80
2023-03-19T20:18:07.102Z,14.27
2023-03-19T20:21:13.004Z,18.07
2023-03-19T20:24:17.246Z,14.83
2023-03-19T20:27:24.668Z,15.30
2023-03-19T20:30:31.089Z,14.97
2023-03-19T20:33:35.456Z,16.03
2023-03-19T20:36:41.128Z,15.40
2023-03-19T20:39:45.764Z,17.13
2023-03-19T20:42:52.255Z,11.37
2023-03-19T20:45:56.982Z,13.33
2023-03-19T20:49:02.348Z,15.53
2023-03-19T20:52:07.897Z,13.57
2023-03-19T20:55:17.315Z,16.37
2023-03-19T20:58:27.870Z,14.33
2023-03-19T21:01:32.624Z,12.63
2023-03-19T21:04:36.818Z,14.90
2023-03-19T21:07:42.849Z,17.13
2023-03-19T21:10:48.674Z,20.73
2023-03-19T21:13:54.369Z,15.93
2023-03-19T21:16:59.264Z,14.57
2023-03-19T21:20:03.611Z,21.00
2023-03-19T21:23:17.548Z,19.03
2023-03-19T21:26:22.854Z,15.63
2023-03-19T21:29:33.600Z,19.77
2023-03-19T21:32:37.707Z,18.80
2023-03-19T21:35:41.851Z,15.87
2023-03-19T21:38:47.924Z,23.80
2023-03-19T21:41:52.275Z,20.03
2023-03-19T21:45:01.223Z,22.63
2023-03-19T21:48:25.168Z,14.77
2023-03-19T21:51:30.224Z,18.10
2023-03-19T21:54:35.839Z,18.60
2023-03-19T21:57:39.923Z,18.63
2023-03-19T22:00:44.749Z,22.07
2023-03-19T22:03:48.922Z,27.97
2023-03-19T22:06:53.295Z,22.97
2023-03-19T22:09:58.829Z,24.33
2023-03-19T22:13:03.154Z,21.07
2023-03-19T22:16:08.119Z,19.13
2023-03-19T22:19:15.657Z,18.17
2023-03-19T22:22:19.773Z,17.50
2023-03-19T22:25:30.359Z,16.47
2023-03-19T22:28:36.386Z,17.03
2023-03-19T22:31:40.553Z,18.23
2023-03-19T22:34:45.269Z,16.60
2023-03-19T22:37:49.676Z,15.10
2023-03-19T22:40:57.504Z,18.90
2023-03-19T22:44:03.799Z,16.17
2023-03-19T22:47:08.055Z,18.50
2023-03-19T22:50:19.036Z,19.23
2023-03-19T22:53:25.241Z,16.57
2023-03-19T22:56:30.765Z,19.70
2023-03-19T22:59:34.882Z,17.13
2023-03-19T23:02:39.020Z,16.37
2023-03-19T23:05:47.475Z,19.97
2023-03-19T23:08:51.608Z,19.27
2023-03-19T23:11:58.257Z,18.43
2023-03-19T23:15:02.336Z,16.37
2023-03-19T23:18:15.220Z,16.00
2023-03-19T23:21:20.470Z,16.10
2023-03-19T23:24:24.559Z,18.20
2023-03-19T23:27:29.908Z,16.93
2023-03-19T23:30:34.872Z,16.83
2023-03-19T23:33:38.915Z,19.90
2023-03-19T23:36:43.896Z,17.97
2023-03-19T23:39:48.006Z,17.20
2023-03-19T23:42:57.109Z,19.37
2023-03-19T23:46:01.405Z,17.33
2023-03-19T23:49:05.364Z,17.17
2023-03-19T23:52:15.016Z,15.73
2023-03-19T23:55:19.916Z,18.03
2023-03-19T23:58:30.951Z,16.03
